Weather at Dewitt Heliport

Public forecast

Using degrees Fahrenheit for public forecast. Weather courtesy of forecast.io.

Closest aviation weather report (METAR) to Dewitt Heliport

Closest report is Greater Rochester International Airport, 8.3 nm (15.3 km) SW. Retrieved 2020/12/01 16:54 UTC (13 minutes ago):

KROC 011654Z 26010KT 7SM -SN BKN008 OVC030 02/01 A2944 RMK AO2 RAE32 SLP977 P0000 T00170011

Closest aviation forecast (TAF) to Dewitt Heliport

Closest forecast is Greater Rochester International Airport, 8.3 nm (15.3 km) SW. Retrieved 2020/12/01 12:42 UTC (4 hours ago):

TAF KROC 011139Z 0112/0212 22006KT 5SM -SHRA OVC007 FM011700 23009KT 4SM -SHRASN OVC012 FM012000 23010G18KT 2SM BR BKN020 FM012200 23010G18KT 2SM BR VCSH BKN015 FM020300 24013G21KT 2SM BR VCSH OVC007